Time;durP1;ratioP1;P1;durP2;ratioP2;P2;SDS_P1;SDS_P2;PMS_P1;PMS_P2;Temp;Humidity;BMP_temperature;BMP_pressure;BME280_temperature;BME280_humidity;BME280_pressure;Samples;Min_cycle;Max_cycle;Signal;HPM_P1;HPM_P2
2021/09/02 05:01:07;;;;;;;5.32;4.90;;;;;;;18.76;61.95;95188.50;5781201;23;20050;-72
2021/09/02 05:03:33;;;;;;;8.27;4.93;;;;;;;19.51;59.56;95189.22;4957052;28;20031;-73
2021/09/02 05:05:58;;;;;;;5.82;4.82;;;;;;;19.93;58.45;95188.28;4975085;28;20541;-73
2021/09/02 05:08:24;;;;;;;6.53;5.78;;;;;;;19.98;58.93;95188.41;4956543;28;20101;-73
2021/09/02 05:10:50;;;;;;;6.68;5.97;;;;;;;19.56;58.07;95189.34;4974445;28;20066;-74
2021/09/02 05:13:15;;;;;;;7.18;6.40;;;;;;;20.55;56.34;95189.63;4956141;28;20026;-73
2021/09/02 05:15:40;;;;;;;6.65;6.13;;;;;;;21.81;52.84;95194.28;4957760;28;20089;-73
2021/09/02 05:18:06;;;;;;;6.43;5.82;;;;;;;22.28;50.39;95182.56;4972901;28;20045;-73
2021/09/02 05:20:31;;;;;;;9.25;5.70;;;;;;;21.55;53.41;95192.97;4989885;28;20102;-73
2021/09/02 05:22:57;;;;;;;8.02;7.22;;;;;;;22.69;50.58;95193.81;4973740;28;20080;-74
2021/09/02 05:25:22;;;;;;;6.68;5.72;;;;;;;22.87;49.44;95186.44;4989584;28;20023;-73
2021/09/02 05:27:48;;;;;;;6.07;5.57;;;;;;;23.91;47.82;95192.66;4990538;28;20030;-73
2021/09/02 05:30:13;;;;;;;6.95;6.28;;;;;;;23.63;47.57;95197.34;4988461;28;20033;-73
2021/09/02 05:32:39;;;;;;;6.32;5.85;;;;;;;23.52;48.33;95191.09;4990238;28;20030;-74
2021/09/02 05:35:05;;;;;;;6.10;5.60;;;;;;;24.66;45.33;95200.56;4989189;28;20058;-73
2021/09/02 05:37:31;;;;;;;7.15;6.65;;;;;;;23.63;45.63;95197.34;4973603;28;20026;-76
2021/09/02 05:39:56;;;;;;;5.97;5.57;;;;;;;25.53;43.48;95200.19;5006190;28;20038;-75
2021/09/02 05:42:22;;;;;;;6.40;5.80;;;;;;;24.17;46.54;95193.75;4972645;28;20026;-75
2021/09/02 05:44:47;;;;;;;9.27;5.88;;;;;;;26.08;42.47;95196.16;4973860;28;20411;-75
2021/09/02 05:47:12;;;;;;;6.32;5.72;;;;;;;25.91;42.14;95195.59;4956291;28;20042;-74
2021/09/02 05:49:38;;;;;;;6.13;5.53;;;;;;;26.27;42.14;95197.31;4940892;28;20077;-74
2021/09/02 05:52:04;;;;;;;6.72;6.07;;;;;;;26.64;41.49;95199.78;4973450;28;20662;-72
2021/09/02 05:54:29;;;;;;;7.18;6.63;;;;;;;25.61;42.56;95198.91;4940101;28;20057;-71
2021/09/02 05:56:54;;;;;;;6.25;5.70;;;;;;;26.50;41.58;95186.19;4952106;28;20035;-72
2021/09/02 05:59:21;;;;;;;7.03;6.50;;;;;;;25.47;43.69;95198.53;4954431;28;20030;-74
2021/09/02 06:01:46;;;;;;;7.20;6.45;;;;;;;23.20;49.41;95201.47;4981770;28;20053;-75
2021/09/02 06:04:12;;;;;;;6.80;6.28;;;;;;;21.90;53.09;95198.19;4935385;28;20120;-75
2021/09/02 06:06:37;;;;;;;13.80;6.45;;;;;;;22.11;51.62;95192.25;4972879;28;20030;-76
2021/09/02 06:09:04;;;;;;;7.55;6.60;;;;;;;22.37;51.73;95204.09;4970562;28;20029;-75
2021/09/02 06:11:30;;;;;;;7.05;6.38;;;;;;;21.11;55.34;95201.50;4972987;28;20113;-76
2021/09/02 06:13:56;;;;;;;6.50;5.85;;;;;;;22.60;53.02;95186.25;4971848;28;20542;-74
2021/09/02 06:16:21;;;;;;;6.47;5.88;;;;;;;25.74;44.33;95187.81;4974119;28;20030;-75
2021/09/02 06:18:48;;;;;;;6.80;6.30;;;;;;;22.80;51.23;95190.28;4956013;28;20476;-74
2021/09/02 06:21:13;;;;;;;8.68;6.13;;;;;;;22.51;52.79;95190.31;4989381;28;20025;-75
2021/09/02 06:23:39;;;;;;;6.28;5.68;;;;;;;22.98;50.93;95190.88;4972515;28;20022;-74
2021/09/02 06:26:04;;;;;;;6.60;6.00;;;;;;;22.67;51.65;95196.69;4985841;28;20033;-75
2021/09/02 06:28:30;;;;;;;6.82;5.15;;;;;;;23.25;50.94;95198.09;4972435;28;20037;-76
2021/09/02 06:30:56;;;;;;;7.63;5.28;;;;;;;23.38;51.26;95198.56;4994160;28;20022;-75
2021/09/02 06:33:21;;;;;;;5.78;5.20;;;;;;;23.99;49.94;95202.78;4981941;28;20073;-77
2021/09/02 06:35:47;;;;;;;8.55;5.55;;;;;;;24.61;48.82;95203.19;4985770;28;20050;-76
2021/09/02 06:38:12;;;;;;;5.88;5.30;;;;;;;26.56;44.40;95200.28;4988922;28;20392;-75
2021/09/02 06:40:37;;;;;;;5.40;4.90;;;;;;;24.37;47.81;95201.88;5003960;28;20041;-77
2021/09/02 06:43:03;;;;;;;6.85;6.15;;;;;;;27.50;42.71;95200.56;4971178;28;20065;-75
2021/09/02 06:45:28;;;;;;;4.97;4.57;;;;;;;29.83;36.05;95199.06;4972687;28;20026;-74
2021/09/02 06:47:54;;;;;;;5.70;4.93;;;;;;;27.91;38.56;95197.75;4986745;28;20030;-79
2021/09/02 06:50:19;;;;;;;5.15;4.40;;;;;;;27.93;39.14;95198.28;4972841;28;20483;-77
2021/09/02 06:52:45;;;;;;;5.80;4.65;;;;;;;22.38;49.68;95209.09;5003131;28;20030;-77
2021/09/02 06:55:11;;;;;;;5.25;4.60;;;;;;;28.10;39.50;95198.75;4955415;28;20436;-79
2021/09/02 06:57:36;;;;;;;8.48;4.70;;;;;;;27.51;40.42;95185.38;4936153;28;20073;-79
2021/09/02 07:00:04;;;;;;;6.20;4.53;;;;;;;25.60;43.32;95202.59;4974730;28;20066;-75
2021/09/02 07:02:29;;;;;;;7.13;4.95;;;;;;;23.37;49.31;95199.63;4986343;28;20512;-76
2021/09/02 07:04:55;;;;;;;5.18;4.68;;;;;;;22.91;49.98;95200.78;4986876;28;20110;-77
2021/09/02 07:07:20;;;;;;;5.97;5.13;;;;;;;24.01;48.21;95194.63;4988173;28;20096;-76
2021/09/02 07:09:45;;;;;;;5.15;4.65;;;;;;;24.11;47.31;95194.72;4983015;28;20038;-76
2021/09/02 07:12:11;;;;;;;4.93;4.47;;;;;;;24.09;47.27;95191.50;4956791;28;20100;-76
2021/09/02 07:14:36;;;;;;;5.30;4.50;;;;;;;24.27;47.33;95191.22;4954167;28;20026;-76
2021/09/02 07:17:02;;;;;;;5.15;4.68;;;;;;;24.29;47.43;95198.91;4988811;28;20037;-77
2021/09/02 07:19:28;;;;;;;4.63;4.18;;;;;;;24.70;46.64;95202.72;4955492;28;20549;-78
2021/09/02 07:21:53;;;;;;;6.38;4.72;;;;;;;24.09;48.39;95197.63;4988232;28;20022;-75
2021/09/02 07:24:19;;;;;;;7.28;4.10;;;;;;;24.16;48.32;95192.16;4968930;28;20093;-73
2021/09/02 07:26:44;;;;;;;4.60;4.20;;;;;;;23.52;48.09;95199.03;4969303;28;20113;-75
2021/09/02 07:29:10;;;;;;;5.15;4.43;;;;;;;23.30;48.14;95204.28;4954728;28;20537;-76
2021/09/02 07:31:36;;;;;;;6.18;4.45;;;;;;;23.59;48.00;95205.75;4973592;28;20022;-77
2021/09/02 07:34:01;;;;;;;6.82;4.43;;;;;;;23.45;49.97;95206.34;4970530;28;20465;-77
2021/09/02 07:36:27;;;;;;;6.38;4.05;;;;;;;23.38;49.54;95203.84;4987931;28;20031;-79
2021/09/02 07:38:52;;;;;;;4.45;4.10;;;;;;;23.22;48.98;95207.31;4986646;28;20438;-77
2021/09/02 07:41:18;;;;;;;4.50;4.10;;;;;;;22.78;50.33;95197.66;4939149;28;20030;-74
2021/09/02 07:43:43;;;;;;;4.65;4.15;;;;;;;22.85;51.19;95209.69;4953615;28;20407;-74
2021/09/02 07:46:09;;;;;;;7.03;4.18;;;;;;;22.76;50.60;95207.69;4986096;28;20411;-77
2021/09/02 07:48:35;;;;;;;4.80;4.30;;;;;;;23.08;49.78;95200.78;4968856;28;20031;-75
2021/09/02 07:51:01;;;;;;;5.10;3.90;;;;;;;23.24;49.46;95199.16;4954243;28;20068;-76
2021/09/02 07:53:26;;;;;;;6.30;4.28;;;;;;;22.61;50.79;95200.25;4967944;28;20495;-78
2021/09/02 07:55:52;;;;;;;5.30;4.55;;;;;;;22.18;50.81;95190.28;4997973;28;20030;-76
2021/09/02 07:58:17;;;;;;;4.43;3.55;;;;;;;22.80;51.14;95192.94;4986516;28;20030;-79
2021/09/02 08:00:43;;;;;;;4.10;3.70;;;;;;;22.96;49.46;95152.50;4969377;28;20030;-83
2021/09/02 08:03:08;;;;;;;5.07;4.05;;;;;;;23.17;50.03;95194.03;4969773;28;20085;-79
2021/09/02 08:05:33;;;;;;;5.47;3.60;;;;;;;23.60;48.98;95183.53;4970222;28;20030;-78
2021/09/02 08:07:59;;;;;;;3.60;3.08;;;;;;;23.77;49.15;95188.78;4970896;28;20030;-77
2021/09/02 08:10:25;;;;;;;6.07;2.92;;;;;;;24.06;46.58;95176.94;4953344;28;20034;-78
2021/09/02 08:12:51;;;;;;;5.95;3.58;;;;;;;23.89;48.09;95168.25;4985753;28;20562;-74
2021/09/02 08:15:17;;;;;;;5.80;3.50;;;;;;;23.51;48.92;95168.34;4946505;28;20486;-73
2021/09/02 08:17:44;;;;;;;5.10;3.50;;;;;;;23.78;48.55;95171.06;4977652;28;20049;-75
2021/09/02 08:20:10;;;;;;;6.53;3.30;;;;;;;24.04;48.09;95165.00;4965383;28;20040;-76
2021/09/02 08:22:35;;;;;;;6.57;3.53;;;;;;;23.73;48.02;95173.66;4950484;28;20034;-75
2021/09/02 08:25:01;;;;;;;4.70;2.63;;;;;;;23.97;48.04;95173.13;4984292;28;20030;-73
2021/09/02 08:27:26;;;;;;;2.92;2.72;;;;;;;23.70;47.97;95166.97;4962811;28;20066;-74
2021/09/02 08:29:52;;;;;;;2.97;2.65;;;;;;;23.91;47.23;95158.25;4947142;28;20038;-74
2021/09/02 08:32:17;;;;;;;3.10;2.88;;;;;;;24.32;48.87;95175.38;4953096;28;20041;-74
2021/09/02 08:34:43;;;;;;;4.30;3.13;;;;;;;24.30;46.92;95160.78;4966099;28;20407;-77
2021/09/02 08:37:08;;;;;;;3.47;3.17;;;;;;;23.95;47.02;95164.63;4951675;28;20031;-76
2021/09/02 08:39:33;;;;;;;5.05;3.45;;;;;;;23.98;48.62;95173.94;4966069;28;20039;-75
2021/09/02 08:41:59;;;;;;;3.45;3.15;;;;;;;24.01;48.34;95176.09;4968929;28;20027;-75
2021/09/02 08:44:24;;;;;;;4.90;3.05;;;;;;;23.37;48.08;95167.88;4981937;28;20101;-73
2021/09/02 08:46:50;;;;;;;4.18;2.45;;;;;;;23.76;48.06;95159.94;4976035;28;20391;-77
2021/09/02 08:49:18;;;;;;;5.60;3.00;;;;;;;24.04;46.88;95162.34;4983240;28;20392;-76
2021/09/02 08:51:44;;;;;;;3.43;3.13;;;;;;;24.10;47.84;95156.88;5003019;28;20037;-77
2021/09/02 08:54:09;;;;;;;3.60;2.60;;;;;;;23.99;48.50;95135.81;4985457;28;20031;-75
2021/09/02 08:56:35;;;;;;;2.88;2.58;;;;;;;24.17;47.33;95150.59;4971529;28;20093;-73
2021/09/02 08:59:00;;;;;;;4.75;2.65;;;;;;;24.11;47.19;95144.44;4954317;28;20035;-75
2021/09/02 09:01:26;;;;;;;2.88;2.33;;;;;;;23.52;47.17;95146.16;4949586;28;20050;-75
2021/09/02 09:03:52;;;;;;;7.50;2.25;;;;;;;23.75;47.80;95147.75;4942702;28;20042;-73
2021/09/02 09:06:29;;;;;;;3.08;2.40;;;;;;;24.50;46.01;95147.72;4983901;28;20615;-75
2021/09/02 09:08:54;;;;;;;4.28;2.40;;;;;;;24.56;46.95;95139.53;4970802;28;20134;-73
2021/09/02 09:11:30;;;;;;;9.93;2.95;;;;;;;24.43;46.10;95140.00;5000756;28;20114;-74
2021/09/02 09:14:06;;;;;;;3.03;2.72;;;;;;;24.37;46.35;95140.97;4970669;28;20447;-73
2021/09/02 09:16:51;;;;;;;4.88;2.53;;;;;;;24.19;46.54;95146.66;4985768;28;20041;-74
2021/09/02 09:19:38;;;;;;;2.90;2.42;;;;;;;24.25;45.64;95148.28;4970029;28;20491;-75
2021/09/02 09:22:12;;;;;;;3.83;2.28;;;;;;;24.31;46.11;95147.28;4968733;28;20029;-75
2021/09/02 09:24:50;;;;;;;2.78;2.38;;;;;;;24.11;46.52;95139.13;4973023;28;20075;-74
2021/09/02 09:27:20;;;;;;;3.65;2.15;;;;;;;24.35;47.92;95139.63;4970858;28;20023;-74
2021/09/02 09:30:20;;;;;;;7.68;2.55;;;;;;;24.01;46.36;95133.75;4966176;28;20555;-72
2021/09/02 09:32:54;;;;;;;3.80;2.53;;;;;;;24.26;45.49;95139.31;4983996;28;20157;-75
2021/09/02 09:35:23;;;;;;;3.08;2.67;;;;;;;24.23;47.42;95146.94;4984204;28;20060;-74
2021/09/02 09:37:50;;;;;;;5.72;2.80;;;;;;;24.18;46.77;95142.38;4989579;28;20018;-74
2021/09/02 09:40:23;;;;;;;2.72;2.53;;;;;;;24.22;46.43;95143.50;4954626;28;20026;-72
2021/09/02 09:43:00;;;;;;;3.28;2.58;;;;;;;24.39;46.83;95144.19;4988449;28;20038;-73
2021/09/02 09:45:32;;;;;;;2.97;2.55;;;;;;;24.50;45.79;95129.97;4951285;28;20026;-75
2021/09/02 09:47:57;;;;;;;2.53;2.30;;;;;;;24.30;45.72;95140.41;4969016;28;20491;-73
2021/09/02 09:50:23;;;;;;;3.80;2.47;;;;;;;24.82;46.15;95131.84;4968813;28;20077;-75
2021/09/02 09:52:48;;;;;;;3.53;2.80;;;;;;;24.60;46.61;95132.69;4966865;28;20040;-74
2021/09/02 09:55:17;;;;;;;9.80;8.80;;;;;;;24.43;45.70;95126.75;4933627;28;20034;-74
2021/09/02 09:57:43;;;;;;;4.35;2.95;;;;;;;23.52;49.01;95133.72;4953538;28;20532;-73
2021/09/02 10:00:11;;;;;;;5.47;3.90;;;;;;;23.67;46.82;95129.63;4996283;28;20031;-74
2021/09/02 10:02:37;;;;;;;3.97;3.17;;;;;;;24.12;45.60;95127.50;4980235;28;20076;-75
2021/09/02 10:05:07;;;;;;;4.53;3.20;;;;;;;24.50;47.43;95129.97;4955939;28;20077;-75
2021/09/02 10:07:34;;;;;;;3.65;2.90;;;;;;;24.04;47.80;95130.59;4960470;28;20419;-75
2021/09/02 10:09:59;;;;;;;4.72;2.33;;;;;;;24.27;45.46;95135.63;4982961;28;20038;-75
2021/09/02 10:12:24;;;;;;;2.92;2.28;;;;;;;24.19;45.72;95130.75;4954813;28;20049;-73
2021/09/02 10:14:50;;;;;;;2.10;2.00;;;;;;;24.69;43.24;95135.69;5003611;28;20240;-76
2021/09/02 10:17:15;;;;;;;2.20;2.10;;;;;;;24.49;45.53;95133.69;4969329;28;20022;-76
2021/09/02 10:19:41;;;;;;;3.30;2.40;;;;;;;24.69;46.22;95137.53;4944914;28;20023;-78
2021/09/02 10:22:06;;;;;;;6.90;6.30;;;;;;;24.89;44.93;95138.50;4953506;28;20034;-75
2021/09/02 10:24:40;;;;;;;7.40;4.68;;;;;;;25.22;44.69;95139.22;4965314;28;20046;-74
2021/09/02 10:27:21;;;;;;;3.00;2.17;;;;;;;24.82;43.83;95142.44;4990588;28;20085;-75
2021/09/02 10:29:46;;;;;;;3.47;2.58;;;;;;;24.16;44.30;95141.03;4982184;28;20200;-74
2021/09/02 10:32:27;;;;;;;4.80;2.60;;;;;;;24.11;45.50;95147.06;4975014;28;20598;-71
2021/09/02 10:35:13;;;;;;;2.45;2.25;;;;;;;24.57;46.38;95143.81;4986821;28;20031;-72
2021/09/02 10:37:43;;;;;;;2.70;2.40;;;;;;;25.04;44.83;95148.44;4957752;28;20046;-72
2021/09/02 10:40:37;;;;;;;3.78;2.35;;;;;;;24.83;45.24;95144.03;4982691;28;20044;-75
2021/09/02 10:43:02;;;;;;;3.47;2.00;;;;;;;24.47;46.61;95150.84;4960282;28;20050;-75
2021/09/02 10:45:28;;;;;;;2.95;2.60;;;;;;;24.40;45.05;95148.41;4976562;28;20034;-72
2021/09/02 10:48:17;;;;;;;3.67;2.03;;;;;;;24.22;46.19;95143.50;4981954;28;20038;-74
2021/09/02 10:50:43;;;;;;;2.78;2.10;;;;;;;23.63;47.02;95143.38;4957980;28;20526;-69
2021/09/02 10:53:10;;;;;;;5.13;2.17;;;;;;;23.53;46.89;95140.63;4984649;28;20042;-74
2021/09/02 10:55:37;;;;;;;4.20;2.40;;;;;;;23.52;47.85;95141.66;4970117;28;20061;-74
2021/09/02 10:58:04;;;;;;;5.32;2.60;;;;;;;23.24;48.36;95099.50;4970025;28;20034;-74
2021/09/02 11:00:30;;;;;;;4.10;2.50;;;;;;;23.44;48.59;95147.38;4939505;28;20084;-74
2021/09/02 11:03:16;;;;;;;2.70;2.40;;;;;;;23.26;48.42;95146.84;4970188;28;20050;-72
2021/09/02 11:05:49;;;;;;;2.85;2.53;;;;;;;22.85;47.82;95156.03;4970379;28;20038;-74
2021/09/02 11:08:50;;;;;;;2.58;2.38;;;;;;;22.87;49.04;95157.38;4970273;28;20022;-74
2021/09/02 11:11:22;;;;;;;2.50;2.35;;;;;;;22.49;49.25;95154.66;4891007;29;20683;-74
2021/09/02 11:13:52;;;;;;;2.78;2.58;;;;;;;23.34;48.23;95144.56;4926901;28;20069;-74
2021/09/02 11:16:22;;;;;;;3.83;2.60;;;;;;;23.81;47.23;95120.28;4954751;28;20084;-75
2021/09/02 11:18:52;;;;;;;3.45;2.80;;;;;;;24.31;45.11;95141.97;4956065;28;20034;-74
2021/09/02 11:21:18;;;;;;;;;;;;;;;23.79;46.25;95141.69;4971054;28;20108;-75
2021/09/02 11:23:48;;;;;;;3.38;2.13;;;;;;;23.09;46.76;95144.22;4962284;28;20419;-74
2021/09/02 11:26:33;;;;;;;2.53;2.33;;;;;;;22.82;48.79;95140.66;4971594;28;20030;-74
2021/09/02 11:28:59;;;;;;;2.75;2.20;;;;;;;23.71;46.45;95136.03;4977801;28;20466;-74
2021/09/02 11:31:24;;;;;;;2.40;2.20;;;;;;;24.06;46.69;95133.78;4960940;28;20030;-71
2021/09/02 11:33:51;;;;;;;2.83;2.60;;;;;;;24.02;46.74;95128.19;4987466;28;20077;-75
2021/09/02 11:36:17;;;;;;;3.88;2.25;;;;;;;23.99;46.29;95141.09;4987208;28;20030;-74
2021/09/02 11:38:42;;;;;;;2.00;1.90;;;;;;;23.88;45.91;95132.28;4980503;28;20027;-73
2021/09/02 11:41:09;;;;;;;3.00;2.03;;;;;;;24.50;46.28;95134.47;4954674;28;20072;-75
2021/09/02 11:43:38;;;;;;;2.85;2.40;;;;;;;24.73;43.89;95133.31;4970996;28;20033;-75
2021/09/02 11:46:05;;;;;;;2.35;2.15;;;;;;;24.15;44.01;95132.31;4953792;28;20081;-75
2021/09/02 11:48:30;;;;;;;3.47;2.40;;;;;;;23.82;44.33;95133.28;4986592;28;20491;-75
2021/09/02 11:50:59;;;;;;;5.65;2.30;;;;;;;23.58;46.26;95129.28;4985560;28;20104;-71
2021/09/02 11:53:30;;;;;;;3.38;2.20;;;;;;;23.57;45.26;95133.78;4955099;28;20125;-75
2021/09/02 11:55:56;;;;;;;5.63;2.22;;;;;;;23.86;44.91;95133.56;4953795;28;20030;-74
2021/09/02 11:58:25;;;;;;;4.38;1.80;;;;;;;24.08;45.60;95137.00;4975827;28;20061;-74
2021/09/02 12:00:58;;;;;;;3.13;1.98;;;;;;;23.98;44.74;95134.25;4981726;28;20030;-72
2021/09/02 12:03:23;;;;;;;1.90;1.80;;;;;;;24.02;44.43;95130.81;4987106;28;20018;-73
2021/09/02 12:05:52;;;;;;;8.48;2.53;;;;;;;24.04;45.68;95115.50;4954390;28;20450;-74
2021/09/02 12:08:17;;;;;;;2.03;1.92;;;;;;;23.85;44.50;95127.50;4954493;28;20461;-71
2021/09/02 12:10:44;;;;;;;2.40;2.20;;;;;;;24.24;44.99;95128.16;4957164;28;20038;-74
2021/09/02 12:13:35;;;;;;;3.97;2.10;;;;;;;23.94;44.57;95117.25;4986134;28;20161;-74
2021/09/02 12:16:06;;;;;;;2.10;1.90;;;;;;;23.94;44.61;95114.59;4987197;28;20022;-72
2021/09/02 12:18:32;;;;;;;2.05;1.90;;;;;;;23.77;44.67;95109.41;4987917;28;20402;-73
2021/09/02 12:21:34;;;;;;;2.10;2.00;;;;;;;23.83;44.00;95111.03;4985556;28;20031;-72
2021/09/02 12:24:06;;;;;;;3.00;2.20;;;;;;;23.64;44.98;95115.06;4966566;28;20033;-74
2021/09/02 12:27:02;;;;;;;3.35;2.58;;;;;;;23.63;44.61;95110.03;4980117;28;20038;-71
2021/09/02 12:29:28;;;;;;;3.17;2.20;;;;;;;23.67;44.48;95111.94;4981606;28;20039;-71
2021/09/02 12:31:54;;;;;;;2.63;2.08;;;;;;;23.65;44.28;95108.75;4987273;28;20378;-75
2021/09/02 12:34:23;;;;;;;4.97;2.20;;;;;;;24.22;42.39;95108.28;5001508;28;20064;-75
2021/09/02 12:37:05;;;;;;;2.30;2.10;;;;;;;24.57;43.44;95101.41;4974781;28;20606;-73
2021/09/02 12:39:51;;;;;;;2.40;1.90;;;;;;;24.46;43.28;95110.34;4970475;28;20100;-72
2021/09/02 12:42:27;;;;;;;1.83;1.73;;;;;;;23.84;43.97;95109.19;4969013;28;20097;-73
2021/09/02 12:45:27;;;;;;;4.03;2.67;;;;;;;23.58;45.01;95106.28;4954045;28;20029;-75
2021/09/02 12:48:00;;;;;;;2.03;1.92;;;;;;;24.40;42.49;95097.31;4945683;28;20518;-75
2021/09/02 12:50:27;;;;;;;2.33;2.13;;;;;;;24.64;41.78;95112.59;4950744;28;20097;-73
2021/09/02 12:52:52;;;;;;;2.60;2.40;;;;;;;24.45;41.66;95108.75;4952191;28;20026;-72
2021/09/02 12:55:23;;;;;;;2.30;2.00;;;;;;;24.03;41.91;95102.50;4970053;28;20414;-70
2021/09/02 12:57:52;;;;;;;4.70;2.05;;;;;;;23.58;43.17;95106.28;4971785;28;20023;-72
2021/09/02 13:00:19;;;;;;;3.35;2.20;;;;;;;23.43;42.80;95102.66;4971658;28;20091;-73
2021/09/02 13:02:45;;;;;;;2.53;2.10;;;;;;;23.21;43.52;95109.78;4970571;28;20117;-74
2021/09/02 13:05:12;;;;;;;3.60;2.47;;;;;;;23.18;43.84;95108.41;4970936;28;20547;-73
2021/09/02 13:08:04;;;;;;;2.83;2.10;;;;;;;23.15;43.74;95111.53;4952334;28;20030;-74
2021/09/02 13:10:31;;;;;;;2.30;2.20;;;;;;;23.10;43.22;95106.19;4935555;28;20039;-73
2021/09/02 13:12:57;;;;;;;5.72;2.40;;;;;;;23.11;43.72;95110.44;4965410;28;20050;-72
2021/09/02 13:15:23;;;;;;;2.47;2.28;;;;;;;23.00;43.73;95113.97;4953260;28;20074;-74
2021/09/02 13:17:48;;;;;;;3.45;2.08;;;;;;;23.19;44.43;95103.91;4968875;28;20018;-73
2021/09/02 13:20:14;;;;;;;2.83;1.80;;;;;;;23.18;44.09;95108.41;4951007;29;20055;-74
2021/09/02 13:22:40;;;;;;;2.22;2.03;;;;;;;23.10;42.05;95101.69;4950280;28;20035;-74
2021/09/02 13:25:06;;;;;;;2.35;2.08;;;;;;;23.06;43.76;95102.41;4960541;28;20110;-71
2021/09/02 13:27:31;;;;;;;3.33;1.88;;;;;;;23.07;43.24;95099.53;4973929;28;20397;-74
2021/09/02 13:29:57;;;;;;;2.30;2.05;;;;;;;22.82;44.07;95103.69;4948895;29;20087;-73
2021/09/02 13:32:22;;;;;;;2.42;2.22;;;;;;;22.77;43.11;95109.69;4967005;28;20039;-72
2021/09/02 13:34:48;;;;;;;3.10;2.15;;;;;;;22.57;42.70;95109.38;4961916;28;20066;-73
2021/09/02 13:37:13;;;;;;;2.10;1.90;;;;;;;22.22;44.91;95108.81;4954284;28;20027;-72
2021/09/02 13:39:39;;;;;;;2.47;2.25;;;;;;;22.12;45.22;95109.44;4953248;28;20042;-73
2021/09/02 13:42:04;;;;;;;3.13;2.10;;;;;;;21.90;45.73;95109.28;4943580;29;20039;-70
2021/09/02 13:44:30;;;;;;;5.97;2.40;;;;;;;22.02;45.46;95109.25;4948464;29;20026;-76
2021/09/02 13:46:56;;;;;;;2.40;2.20;;;;;;;21.87;46.11;95114.22;4950862;28;20031;-74
2021/09/02 13:49:21;;;;;;;2.10;2.00;;;;;;;21.86;45.76;95113.44;4970238;28;20627;-72
2021/09/02 13:51:47;;;;;;;2.17;1.98;;;;;;;21.91;46.31;95110.91;4965759;28;20093;-74
2021/09/02 13:54:12;;;;;;;2.58;2.13;;;;;;;21.95;46.90;95108.59;4958606;28;20055;-74
2021/09/02 13:56:38;;;;;;;2.28;2.10;;;;;;;22.34;45.22;95112.16;4941584;28;20034;-74
2021/09/02 13:59:03;;;;;;;2.95;2.10;;;;;;;22.35;46.72;95097.91;4964821;28;20019;-74
2021/09/02 14:01:29;;;;;;;2.50;2.30;;;;;;;22.77;45.14;95103.59;4943741;29;20051;-72
2021/09/02 14:03:54;;;;;;;3.38;2.20;;;;;;;23.08;45.15;95111.72;4942388;29;20106;-75
2021/09/02 14:06:21;;;;;;;3.95;2.35;;;;;;;23.05;44.88;95120.13;4939577;29;20465;-72
2021/09/02 14:08:47;;;;;;;2.78;2.50;;;;;;;22.77;45.26;95120.25;4937742;29;20465;-73
2021/09/02 14:11:13;;;;;;;8.63;2.60;;;;;;;22.67;45.92;95111.41;4940648;28;20019;-72
2021/09/02 14:13:39;;;;;;;2.42;2.22;;;;;;;22.62;45.53;95120.00;4921146;29;20024;-73
2021/09/02 14:16:04;;;;;;;2.72;2.53;;;;;;;22.31;46.42;95118.72;4922380;29;20027;-75
2021/09/02 14:18:30;;;;;;;2.78;2.30;;;;;;;22.32;47.41;95112.38;4933650;29;20047;-74
2021/09/02 14:20:55;;;;;;;2.45;2.22;;;;;;;21.97;47.10;95114.44;4897475;29;20024;-72
2021/09/02 14:23:21;;;;;;;2.85;2.55;;;;;;;22.03;47.47;95098.44;4930158;29;20087;-75
2021/09/02 14:25:47;;;;;;;2.40;2.20;;;;;;;22.04;46.86;95101.88;4947325;29;20524;-75
2021/09/02 14:28:13;;;;;;;5.32;2.95;;;;;;;22.00;46.95;95104.19;4932922;29;20027;-74
2021/09/02 14:30:39;;;;;;;2.50;2.30;;;;;;;22.04;46.71;95104.53;4946696;29;20429;-72
2021/09/02 14:33:05;;;;;;;2.75;2.55;;;;;;;21.86;47.52;95104.72;4947139;29;20505;-74
2021/09/02 14:35:30;;;;;;;3.17;2.90;;;;;;;21.77;48.41;95114.06;4914182;29;20043;-74
2021/09/02 14:37:57;;;;;;;4.13;3.03;;;;;;;21.81;48.87;95115.97;4929208;29;20618;-75
2021/09/02 14:40:22;;;;;;;2.85;2.65;;;;;;;21.62;49.76;95116.38;4942986;29;20032;-74
2021/09/02 14:42:49;;;;;;;2.97;2.67;;;;;;;21.44;50.21;95107.63;4931156;29;20105;-75
2021/09/02 14:45:14;;;;;;;3.40;2.90;;;;;;;21.48;50.44;95121.16;4940149;29;20041;-73
2021/09/02 14:47:39;;;;;;;3.42;2.60;;;;;;;21.40;50.75;95124.94;4927744;29;20034;-74
2021/09/02 14:50:06;;;;;;;11.02;3.70;;;;;;;21.32;49.75;95106.06;4936221;29;20032;-75
2021/09/02 14:52:31;;;;;;;6.95;3.15;;;;;;;21.38;50.10;95124.34;4946510;28;20227;-72
2021/09/02 14:54:56;;;;;;;3.50;3.08;;;;;;;21.35;50.35;95126.69;4947619;29;20500;-73
2021/09/02 14:57:24;;;;;;;4.97;3.08;;;;;;;21.25;49.94;95122.00;4946609;29;20043;-73
2021/09/02 14:59:50;;;;;;;3.15;2.95;;;;;;;21.30;50.42;95130.00;4934694;28;20045;-77
2021/09/02 15:02:16;;;;;;;3.72;3.35;;;;;;;21.23;50.24;95131.94;4941524;29;20047;-74
2021/09/02 15:04:41;;;;;;;3.25;2.95;;;;;;;21.22;49.65;95130.38;4962183;28;20035;-74
2021/09/02 15:07:07;;;;;;;2.92;2.72;;;;;;;21.25;50.18;95131.75;4965824;28;20043;-76
2021/09/02 15:09:32;;;;;;;3.20;2.95;;;;;;;21.39;49.48;95128.59;4965434;28;20031;-75
2021/09/02 15:11:58;;;;;;;4.63;2.50;;;;;;;21.65;48.76;95127.25;4966145;28;20023;-72
2021/09/02 15:14:23;;;;;;;3.25;2.92;;;;;;;21.42;49.09;95114.16;4961876;28;20165;-77
2021/09/02 15:16:49;;;;;;;3.13;2.90;;;;;;;21.73;48.76;95115.56;4968563;28;20081;-75
2021/09/02 15:19:14;;;;;;;5.38;3.08;;;;;;;21.90;48.57;95117.22;4968053;28;20026;-73
2021/09/02 15:21:40;;;;;;;3.97;2.72;;;;;;;21.92;48.82;95116.97;4966889;28;20495;-74
2021/09/02 15:24:05;;;;;;;3.53;3.22;;;;;;;21.91;49.03;95115.38;4967462;28;20026;-72
2021/09/02 15:26:31;;;;;;;3.88;3.17;;;;;;;22.02;48.56;95106.63;4958972;28;20035;-76
2021/09/02 15:28:56;;;;;;;3.35;2.70;;;;;;;21.84;49.13;95107.56;4968081;28;20114;-74
2021/09/02 15:31:22;;;;;;;4.97;2.88;;;;;;;21.83;49.63;95113.09;4948860;28;20392;-71
2021/09/02 15:33:47;;;;;;;3.03;2.63;;;;;;;21.91;49.09;95121.47;4969322;28;20065;-73
2021/09/02 15:36:13;;;;;;;2.72;2.53;;;;;;;21.65;49.94;95111.44;4966665;28;20121;-73
2021/09/02 15:38:38;;;;;;;4.90;3.00;;;;;;;21.67;49.86;95116.50;4955561;28;20097;-74
2021/09/02 15:41:04;;;;;;;3.45;2.63;;;;;;;21.66;49.90;95120.97;4957465;28;20093;-76
2021/09/02 15:43:29;;;;;;;2.95;2.60;;;;;;;21.61;50.26;95114.81;4962164;28;20488;-75
2021/09/02 15:45:55;;;;;;;3.25;2.97;;;;;;;21.27;50.64;95116.47;4964890;28;20034;-73
2021/09/02 15:48:20;;;;;;;3.17;2.70;;;;;;;21.35;50.07;95122.19;4965178;28;20030;-74
2021/09/02 15:50:46;;;;;;;3.63;2.38;;;;;;;21.30;49.92;95116.00;4968012;28;20046;-75
2021/09/02 15:53:13;;;;;;;4.78;2.95;;;;;;;21.18;50.88;95121.31;4963355;28;20022;-74
2021/09/02 15:55:39;;;;;;;5.65;2.85;;;;;;;21.14;51.94;95116.72;4966544;28;20038;-75
2021/09/02 15:58:04;;;;;;;3.92;2.95;;;;;;;21.04;52.67;95117.28;4965922;28;20062;-74
2021/09/02 16:00:30;;;;;;;5.32;2.85;;;;;;;20.77;52.79;95111.72;4953678;28;20026;-74
2021/09/02 16:02:55;;;;;;;6.50;3.33;;;;;;;20.64;52.63;95122.47;4988875;28;20509;-74
2021/09/02 16:05:21;;;;;;;3.42;3.13;;;;;;;20.57;53.02;95116.50;4988856;28;20054;-74
2021/09/02 16:07:46;;;;;;;2.53;2.33;;;;;;;20.55;53.04;95121.19;4997543;28;20629;-74
2021/09/02 16:10:12;;;;;;;4.35;3.10;;;;;;;20.49;53.14;95124.72;4963357;28;20038;-75
2021/09/02 16:12:38;;;;;;;5.00;2.83;;;;;;;20.35;53.91;95118.91;4943937;28;20026;-75
2021/09/02 16:15:05;;;;;;;4.85;3.20;;;;;;;20.32;52.68;95135.16;4945823;28;20034;-76
2021/09/02 16:17:32;;;;;;;3.83;3.03;;;;;;;20.20;52.56;95126.38;4964114;28;20385;-75
2021/09/02 16:19:58;;;;;;;11.20;3.25;;;;;;;20.19;52.48;95130.06;4964170;28;20086;-74
2021/09/02 16:22:24;;;;;;;15.02;3.38;;;;;;;20.13;52.15;95128.28;4928866;28;20027;-75
2021/09/02 16:24:49;;;;;;;13.20;3.35;;;;;;;20.02;51.55;95130.91;4945331;29;20035;-75
2021/09/02 16:27:15;;;;;;;4.53;2.58;;;;;;;19.99;51.72;95137.44;4931127;29;20520;-75
2021/09/02 16:29:41;;;;;;;3.97;2.80;;;;;;;19.93;51.96;95139.13;4947198;29;20397;-75
2021/09/02 16:32:07;;;;;;;3.80;2.60;;;;;;;19.75;52.57;95140.97;4930585;28;20034;-74
2021/09/02 16:34:33;;;;;;;3.33;2.58;;;;;;;19.68;52.91;95135.81;4975920;28;20508;-76
2021/09/02 16:36:58;;;;;;;3.55;2.80;;;;;;;19.50;53.48;95141.09;4975026;28;20038;-74